sensor_id;sensor_type;location;lat;lon;timestamp;P1;durP1;ratioP1;P2;durP2;ratioP2
70228;SDS011;57617;51.988;5.854;2022-12-07T00:00:42;23.42;;;11.55;;
70228;SDS011;57617;51.988;5.854;2022-12-07T00:03:08;22.20;;;11.68;;
70228;SDS011;57617;51.988;5.854;2022-12-07T00:05:33;24.88;;;12.07;;
70228;SDS011;57617;51.988;5.854;2022-12-07T00:07:58;23.13;;;11.40;;
70228;SDS011;57617;51.988;5.854;2022-12-07T00:10:23;24.83;;;11.57;;
70228;SDS011;57617;51.988;5.854;2022-12-07T00:12:49;21.60;;;11.47;;
70228;SDS011;57617;51.988;5.854;2022-12-07T00:15:15;25.25;;;11.43;;
70228;SDS011;57617;51.988;5.854;2022-12-07T00:17:40;26.35;;;10.65;;
70228;SDS011;57617;51.988;5.854;2022-12-07T00:20:06;26.00;;;11.50;;
70228;SDS011;57617;51.988;5.854;2022-12-07T00:22:31;24.40;;;11.10;;
70228;SDS011;57617;51.988;5.854;2022-12-07T00:24:57;20.88;;;10.98;;
70228;SDS011;57617;51.988;5.854;2022-12-07T00:27:22;27.75;;;11.65;;
70228;SDS011;57617;51.988;5.854;2022-12-07T00:29:47;23.25;;;11.27;;
70228;SDS011;57617;51.988;5.854;2022-12-07T00:32:12;24.57;;;11.17;;
70228;SDS011;57617;51.988;5.854;2022-12-07T00:34:38;26.48;;;11.30;;
70228;SDS011;57617;51.988;5.854;2022-12-07T00:37:03;22.17;;;10.60;;
70228;SDS011;57617;51.988;5.854;2022-12-07T00:39:28;20.63;;;10.50;;
70228;SDS011;57617;51.988;5.854;2022-12-07T00:41:54;21.67;;;10.63;;
70228;SDS011;57617;51.988;5.854;2022-12-07T00:44:19;20.93;;;10.27;;
70228;SDS011;57617;51.988;5.854;2022-12-07T00:46:44;20.63;;;10.30;;
70228;SDS011;57617;51.988;5.854;2022-12-07T00:49:10;24.03;;;9.90;;
70228;SDS011;57617;51.988;5.854;2022-12-07T00:51:36;20.70;;;10.33;;
70228;SDS011;57617;51.988;5.854;2022-12-07T00:54:01;22.47;;;10.57;;
70228;SDS011;57617;51.988;5.854;2022-12-07T00:56:27;26.60;;;10.67;;
70228;SDS011;57617;51.988;5.854;2022-12-07T00:58:54;21.65;;;10.35;;
70228;SDS011;57617;51.988;5.854;2022-12-07T01:01:21;20.33;;;10.20;;
70228;SDS011;57617;51.988;5.854;2022-12-07T01:03:47;22.57;;;10.03;;
70228;SDS011;57617;51.988;5.854;2022-12-07T01:06:16;20.50;;;9.97;;
70228;SDS011;57617;51.988;5.854;2022-12-07T01:08:43;21.80;;;9.85;;
70228;SDS011;57617;51.988;5.854;2022-12-07T01:11:09;19.90;;;9.82;;
70228;SDS011;57617;51.988;5.854;2022-12-07T01:13:38;23.08;;;9.68;;
70228;SDS011;57617;51.988;5.854;2022-12-07T01:16:04;26.03;;;9.20;;
70228;SDS011;57617;51.988;5.854;2022-12-07T01:18:31;22.20;;;9.98;;
70228;SDS011;57617;51.988;5.854;2022-12-07T01:21:02;22.73;;;9.27;;
70228;SDS011;57617;51.988;5.854;2022-12-07T01:23:29;23.50;;;9.93;;
70228;SDS011;57617;51.988;5.854;2022-12-07T01:25:56;24.30;;;10.30;;
70228;SDS011;57617;51.988;5.854;2022-12-07T01:28:22;23.80;;;10.03;;
70228;SDS011;57617;51.988;5.854;2022-12-07T01:30:58;24.60;;;9.70;;
70228;SDS011;57617;51.988;5.854;2022-12-07T01:33:29;20.07;;;9.47;;
70228;SDS011;57617;51.988;5.854;2022-12-07T01:36:05;23.37;;;9.87;;
70228;SDS011;57617;51.988;5.854;2022-12-07T01:38:41;25.93;;;9.57;;
70228;SDS011;57617;51.988;5.854;2022-12-07T01:41:08;21.75;;;9.30;;
70228;SDS011;57617;51.988;5.854;2022-12-07T01:43:33;25.97;;;9.77;;
70228;SDS011;57617;51.988;5.854;2022-12-07T01:46:00;25.25;;;10.23;;
70228;SDS011;57617;51.988;5.854;2022-12-07T01:48:34;25.73;;;9.23;;
70228;SDS011;57617;51.988;5.854;2022-12-07T01:51:10;21.57;;;9.57;;
70228;SDS011;57617;51.988;5.854;2022-12-07T01:53:39;24.90;;;9.53;;
70228;SDS011;57617;51.988;5.854;2022-12-07T01:56:10;23.03;;;8.87;;
70228;SDS011;57617;51.988;5.854;2022-12-07T01:58:42;25.97;;;9.47;;
70228;SDS011;57617;51.988;5.854;2022-12-07T02:01:08;23.63;;;9.57;;
70228;SDS011;57617;51.988;5.854;2022-12-07T02:03:38;27.63;;;9.47;;
70228;SDS011;57617;51.988;5.854;2022-12-07T02:06:05;23.77;;;9.70;;
70228;SDS011;57617;51.988;5.854;2022-12-07T02:08:32;20.77;;;9.73;;
70228;SDS011;57617;51.988;5.854;2022-12-07T02:11:00;20.67;;;9.60;;
70228;SDS011;57617;51.988;5.854;2022-12-07T02:13:29;23.20;;;9.50;;
70228;SDS011;57617;51.988;5.854;2022-12-07T02:29:45;26.33;;;9.10;;
70228;SDS011;57617;51.988;5.854;2022-12-07T02:32:23;26.47;;;9.57;;
70228;SDS011;57617;51.988;5.854;2022-12-07T02:34:58;22.48;;;9.20;;
70228;SDS011;57617;51.988;5.854;2022-12-07T02:37:34;25.30;;;9.27;;
70228;SDS011;57617;51.988;5.854;2022-12-07T02:40:09;23.40;;;9.00;;
70228;SDS011;57617;51.988;5.854;2022-12-07T02:42:41;21.80;;;8.90;;
70228;SDS011;57617;51.988;5.854;2022-12-07T02:45:12;18.55;;;8.85;;
70228;SDS011;57617;51.988;5.854;2022-12-07T02:47:41;22.07;;;8.87;;
70228;SDS011;57617;51.988;5.854;2022-12-07T02:50:08;18.53;;;8.60;;
70228;SDS011;57617;51.988;5.854;2022-12-07T02:52:34;20.03;;;8.43;;
70228;SDS011;57617;51.988;5.854;2022-12-07T02:54:59;22.20;;;9.00;;
70228;SDS011;57617;51.988;5.854;2022-12-07T03:00:19;16.97;;;8.73;;
70228;SDS011;57617;51.988;5.854;2022-12-07T03:07:51;21.13;;;8.43;;
70228;SDS011;57617;51.988;5.854;2022-12-07T03:13:12;22.85;;;8.52;;
70228;SDS011;57617;51.988;5.854;2022-12-07T03:18:22;20.67;;;7.77;;
70228;SDS011;57617;51.988;5.854;2022-12-07T03:20:52;21.23;;;7.83;;
70228;SDS011;57617;51.988;5.854;2022-12-07T03:23:21;16.33;;;7.70;;
70228;SDS011;57617;51.988;5.854;2022-12-07T03:25:51;18.80;;;7.80;;
70228;SDS011;57617;51.988;5.854;2022-12-07T03:28:22;18.87;;;7.37;;
70228;SDS011;57617;51.988;5.854;2022-12-07T03:30:50;17.33;;;7.10;;
70228;SDS011;57617;51.988;5.854;2022-12-07T03:33:47;19.00;;;7.27;;
70228;SDS011;57617;51.988;5.854;2022-12-07T03:36:20;19.57;;;7.50;;
70228;SDS011;57617;51.988;5.854;2022-12-07T03:38:51;16.90;;;7.47;;
70228;SDS011;57617;51.988;5.854;2022-12-07T03:41:27;17.20;;;6.78;;
70228;SDS011;57617;51.988;5.854;2022-12-07T03:43:56;22.88;;;7.00;;
70228;SDS011;57617;51.988;5.854;2022-12-07T03:49:23;22.63;;;7.00;;
70228;SDS011;57617;51.988;5.854;2022-12-07T03:57:22;14.73;;;6.60;;
70228;SDS011;57617;51.988;5.854;2022-12-07T03:59:50;26.43;;;7.00;;
70228;SDS011;57617;51.988;5.854;2022-12-07T04:02:18;19.40;;;7.43;;
70228;SDS011;57617;51.988;5.854;2022-12-07T04:04:44;16.43;;;6.80;;
70228;SDS011;57617;51.988;5.854;2022-12-07T04:07:10;13.15;;;6.70;;
70228;SDS011;57617;51.988;5.854;2022-12-07T04:09:35;15.23;;;6.82;;
70228;SDS011;57617;51.988;5.854;2022-12-07T04:12:01;17.77;;;7.07;;
70228;SDS011;57617;51.988;5.854;2022-12-07T04:14:26;20.15;;;6.85;;
70228;SDS011;57617;51.988;5.854;2022-12-07T04:16:52;17.45;;;6.47;;
70228;SDS011;57617;51.988;5.854;2022-12-07T04:19:23;17.73;;;6.53;;
70228;SDS011;57617;51.988;5.854;2022-12-07T04:21:53;18.30;;;6.70;;
70228;SDS011;57617;51.988;5.854;2022-12-07T04:24:19;16.13;;;5.55;;
70228;SDS011;57617;51.988;5.854;2022-12-07T04:26:45;17.70;;;6.63;;
70228;SDS011;57617;51.988;5.854;2022-12-07T04:29:11;14.37;;;6.13;;
70228;SDS011;57617;51.988;5.854;2022-12-07T04:31:36;20.08;;;7.60;;
70228;SDS011;57617;51.988;5.854;2022-12-07T04:34:02;15.67;;;6.30;;
70228;SDS011;57617;51.988;5.854;2022-12-07T04:36:28;21.23;;;5.25;;
70228;SDS011;57617;51.988;5.854;2022-12-07T04:38:54;18.23;;;6.20;;
70228;SDS011;57617;51.988;5.854;2022-12-07T04:41:19;18.73;;;6.07;;
70228;SDS011;57617;51.988;5.854;2022-12-07T04:43:51;19.00;;;5.80;;
70228;SDS011;57617;51.988;5.854;2022-12-07T04:46:21;24.75;;;5.85;;
70228;SDS011;57617;51.988;5.854;2022-12-07T04:48:47;19.65;;;5.30;;
70228;SDS011;57617;51.988;5.854;2022-12-07T04:51:14;13.60;;;5.45;;
70228;SDS011;57617;51.988;5.854;2022-12-07T04:53:43;9.20;;;4.17;;
70228;SDS011;57617;51.988;5.854;2022-12-07T04:56:08;15.07;;;4.40;;
70228;SDS011;57617;51.988;5.854;2022-12-07T04:58:33;12.27;;;4.57;;
70228;SDS011;57617;51.988;5.854;2022-12-07T05:00:59;12.10;;;4.67;;
70228;SDS011;57617;51.988;5.854;2022-12-07T05:03:24;16.07;;;4.53;;
70228;SDS011;57617;51.988;5.854;2022-12-07T05:05:49;14.77;;;4.20;;
70228;SDS011;57617;51.988;5.854;2022-12-07T05:08:14;16.43;;;4.47;;
70228;SDS011;57617;51.988;5.854;2022-12-07T05:10:40;13.07;;;4.17;;
70228;SDS011;57617;51.988;5.854;2022-12-07T05:13:05;11.13;;;4.27;;
70228;SDS011;57617;51.988;5.854;2022-12-07T05:15:30;12.93;;;3.73;;
70228;SDS011;57617;51.988;5.854;2022-12-07T05:17:55;12.73;;;3.67;;
70228;SDS011;57617;51.988;5.854;2022-12-07T05:20:21;11.43;;;3.60;;
70228;SDS011;57617;51.988;5.854;2022-12-07T05:22:46;11.87;;;3.77;;
70228;SDS011;57617;51.988;5.854;2022-12-07T05:25:13;17.43;;;3.63;;
70228;SDS011;57617;51.988;5.854;2022-12-07T05:27:38;8.30;;;3.37;;
70228;SDS011;57617;51.988;5.854;2022-12-07T05:30:04;12.10;;;3.17;;
70228;SDS011;57617;51.988;5.854;2022-12-07T05:32:30;9.17;;;3.33;;
70228;SDS011;57617;51.988;5.854;2022-12-07T05:34:55;13.48;;;3.72;;
70228;SDS011;57617;51.988;5.854;2022-12-07T05:37:20;14.00;;;3.50;;
70228;SDS011;57617;51.988;5.854;2022-12-07T05:39:46;11.73;;;3.20;;
70228;SDS011;57617;51.988;5.854;2022-12-07T05:42:11;11.47;;;3.60;;
70228;SDS011;57617;51.988;5.854;2022-12-07T05:44:36;14.27;;;3.60;;
70228;SDS011;57617;51.988;5.854;2022-12-07T05:47:02;11.52;;;3.10;;
70228;SDS011;57617;51.988;5.854;2022-12-07T05:49:27;10.20;;;3.10;;
70228;SDS011;57617;51.988;5.854;2022-12-07T05:51:53;13.60;;;3.30;;
70228;SDS011;57617;51.988;5.854;2022-12-07T05:54:18;9.60;;;3.00;;
70228;SDS011;57617;51.988;5.854;2022-12-07T05:56:43;11.30;;;3.20;;
70228;SDS011;57617;51.988;5.854;2022-12-07T05:59:09;11.68;;;3.13;;
70228;SDS011;57617;51.988;5.854;2022-12-07T06:01:51;13.07;;;2.80;;
70228;SDS011;57617;51.988;5.854;2022-12-07T06:04:22;6.57;;;3.10;;
70228;SDS011;57617;51.988;5.854;2022-12-07T06:06:48;9.60;;;2.65;;
70228;SDS011;57617;51.988;5.854;2022-12-07T06:09:13;13.05;;;2.90;;
70228;SDS011;57617;51.988;5.854;2022-12-07T06:11:39;6.27;;;2.80;;
70228;SDS011;57617;51.988;5.854;2022-12-07T06:14:24;8.23;;;2.90;;
70228;SDS011;57617;51.988;5.854;2022-12-07T06:16:49;11.93;;;2.80;;
70228;SDS011;57617;51.988;5.854;2022-12-07T06:19:15;15.02;;;3.25;;
70228;SDS011;57617;51.988;5.854;2022-12-07T06:21:40;12.60;;;3.30;;
70228;SDS011;57617;51.988;5.854;2022-12-07T06:24:06;11.27;;;2.90;;
70228;SDS011;57617;51.988;5.854;2022-12-07T06:26:32;10.70;;;3.07;;
70228;SDS011;57617;51.988;5.854;2022-12-07T06:28:57;9.83;;;3.00;;
70228;SDS011;57617;51.988;5.854;2022-12-07T06:31:23;10.25;;;3.17;;
70228;SDS011;57617;51.988;5.854;2022-12-07T06:33:48;14.63;;;3.13;;
70228;SDS011;57617;51.988;5.854;2022-12-07T06:36:14;11.23;;;3.70;;
70228;SDS011;57617;51.988;5.854;2022-12-07T06:38:39;11.07;;;3.40;;
70228;SDS011;57617;51.988;5.854;2022-12-07T06:41:04;13.83;;;3.33;;
70228;SDS011;57617;51.988;5.854;2022-12-07T06:43:31;22.60;;;3.60;;
70228;SDS011;57617;51.988;5.854;2022-12-07T06:45:56;11.60;;;2.80;;
70228;SDS011;57617;51.988;5.854;2022-12-07T06:48:22;13.03;;;3.80;;
70228;SDS011;57617;51.988;5.854;2022-12-07T06:50:47;9.70;;;3.40;;
70228;SDS011;57617;51.988;5.854;2022-12-07T06:53:13;12.53;;;3.30;;
70228;SDS011;57617;51.988;5.854;2022-12-07T06:55:38;9.87;;;3.10;;
70228;SDS011;57617;51.988;5.854;2022-12-07T06:58:03;10.73;;;3.40;;
70228;SDS011;57617;51.988;5.854;2022-12-07T07:00:29;9.50;;;3.17;;
70228;SDS011;57617;51.988;5.854;2022-12-07T07:02:54;15.00;;;3.63;;
70228;SDS011;57617;51.988;5.854;2022-12-07T07:05:20;17.40;;;3.40;;
70228;SDS011;57617;51.988;5.854;2022-12-07T07:07:48;11.23;;;3.10;;
70228;SDS011;57617;51.988;5.854;2022-12-07T07:10:15;9.23;;;2.90;;
70228;SDS011;57617;51.988;5.854;2022-12-07T07:12:40;12.77;;;3.05;;
70228;SDS011;57617;51.988;5.854;2022-12-07T07:15:06;18.20;;;3.70;;
70228;SDS011;57617;51.988;5.854;2022-12-07T07:17:31;12.60;;;3.07;;
70228;SDS011;57617;51.988;5.854;2022-12-07T07:19:57;13.67;;;2.97;;
70228;SDS011;57617;51.988;5.854;2022-12-07T07:22:22;16.00;;;3.00;;
70228;SDS011;57617;51.988;5.854;2022-12-07T07:24:48;9.27;;;2.90;;
70228;SDS011;57617;51.988;5.854;2022-12-07T07:27:13;11.93;;;2.60;;
70228;SDS011;57617;51.988;5.854;2022-12-07T07:29:38;9.90;;;2.70;;
70228;SDS011;57617;51.988;5.854;2022-12-07T07:32:04;14.47;;;5.33;;
70228;SDS011;57617;51.988;5.854;2022-12-07T07:34:29;12.90;;;3.90;;
70228;SDS011;57617;51.988;5.854;2022-12-07T07:36:54;9.60;;;3.20;;
70228;SDS011;57617;51.988;5.854;2022-12-07T07:39:20;15.67;;;3.17;;
70228;SDS011;57617;51.988;5.854;2022-12-07T07:41:46;14.88;;;2.88;;
70228;SDS011;57617;51.988;5.854;2022-12-07T07:44:11;13.30;;;2.73;;
70228;SDS011;57617;51.988;5.854;2022-12-07T07:46:37;15.83;;;3.47;;
70228;SDS011;57617;51.988;5.854;2022-12-07T07:49:02;9.23;;;2.87;;
70228;SDS011;57617;51.988;5.854;2022-12-07T07:51:28;6.73;;;2.70;;
70228;SDS011;57617;51.988;5.854;2022-12-07T07:53:53;13.60;;;3.07;;
70228;SDS011;57617;51.988;5.854;2022-12-07T07:56:18;12.20;;;3.07;;
70228;SDS011;57617;51.988;5.854;2022-12-07T07:58:44;13.10;;;3.07;;
70228;SDS011;57617;51.988;5.854;2022-12-07T08:01:09;11.73;;;3.17;;
70228;SDS011;57617;51.988;5.854;2022-12-07T08:03:34;6.87;;;2.80;;
70228;SDS011;57617;51.988;5.854;2022-12-07T08:06:01;13.30;;;3.17;;
70228;SDS011;57617;51.988;5.854;2022-12-07T08:08:27;10.10;;;3.37;;
70228;SDS011;57617;51.988;5.854;2022-12-07T08:10:52;11.27;;;3.20;;
70228;SDS011;57617;51.988;5.854;2022-12-07T08:13:17;15.07;;;3.40;;
70228;SDS011;57617;51.988;5.854;2022-12-07T08:15:43;20.93;;;3.53;;
70228;SDS011;57617;51.988;5.854;2022-12-07T08:18:11;9.77;;;3.57;;
70228;SDS011;57617;51.988;5.854;2022-12-07T08:20:37;14.82;;;3.38;;
70228;SDS011;57617;51.988;5.854;2022-12-07T08:23:05;12.83;;;3.43;;
70228;SDS011;57617;51.988;5.854;2022-12-07T08:25:31;14.33;;;4.20;;
70228;SDS011;57617;51.988;5.854;2022-12-07T08:27:58;13.00;;;3.60;;
70228;SDS011;57617;51.988;5.854;2022-12-07T08:30:23;14.95;;;3.55;;
70228;SDS011;57617;51.988;5.854;2022-12-07T08:32:49;13.33;;;3.57;;
70228;SDS011;57617;51.988;5.854;2022-12-07T08:35:15;11.07;;;3.60;;
70228;SDS011;57617;51.988;5.854;2022-12-07T08:37:40;13.25;;;3.85;;
70228;SDS011;57617;51.988;5.854;2022-12-07T08:40:07;10.18;;;3.15;;
70228;SDS011;57617;51.988;5.854;2022-12-07T08:42:34;11.33;;;3.17;;
70228;SDS011;57617;51.988;5.854;2022-12-07T08:45:06;9.83;;;3.03;;
70228;SDS011;57617;51.988;5.854;2022-12-07T08:47:34;9.90;;;3.37;;
70228;SDS011;57617;51.988;5.854;2022-12-07T08:50:02;12.98;;;3.08;;
70228;SDS011;57617;51.988;5.854;2022-12-07T08:52:30;15.00;;;3.13;;
70228;SDS011;57617;51.988;5.854;2022-12-07T08:54:56;12.50;;;2.90;;
70228;SDS011;57617;51.988;5.854;2022-12-07T08:57:23;13.90;;;3.30;;
70228;SDS011;57617;51.988;5.854;2022-12-07T08:59:49;15.47;;;3.23;;
70228;SDS011;57617;51.988;5.854;2022-12-07T09:02:14;12.40;;;3.50;;
70228;SDS011;57617;51.988;5.854;2022-12-07T09:04:39;10.82;;;2.97;;
70228;SDS011;57617;51.988;5.854;2022-12-07T09:07:05;10.97;;;3.00;;
70228;SDS011;57617;51.988;5.854;2022-12-07T09:09:31;12.67;;;3.20;;
70228;SDS011;57617;51.988;5.854;2022-12-07T09:11:56;18.83;;;3.78;;
70228;SDS011;57617;51.988;5.854;2022-12-07T09:14:22;13.57;;;3.17;;
70228;SDS011;57617;51.988;5.854;2022-12-07T09:16:47;12.93;;;4.23;;
70228;SDS011;57617;51.988;5.854;2022-12-07T09:19:12;13.47;;;4.00;;
70228;SDS011;57617;51.988;5.854;2022-12-07T09:21:38;16.15;;;3.90;;
70228;SDS011;57617;51.988;5.854;2022-12-07T09:24:03;13.18;;;4.32;;
70228;SDS011;57617;51.988;5.854;2022-12-07T09:26:29;13.90;;;3.57;;
70228;SDS011;57617;51.988;5.854;2022-12-07T09:28:54;13.45;;;3.70;;
70228;SDS011;57617;51.988;5.854;2022-12-07T09:31:19;12.68;;;4.03;;
70228;SDS011;57617;51.988;5.854;2022-12-07T09:33:44;15.98;;;4.72;;
70228;SDS011;57617;51.988;5.854;2022-12-07T09:36:10;13.50;;;3.65;;
70228;SDS011;57617;51.988;5.854;2022-12-07T09:38:35;13.35;;;3.80;;
70228;SDS011;57617;51.988;5.854;2022-12-07T09:41:04;13.15;;;3.88;;
70228;SDS011;57617;51.988;5.854;2022-12-07T09:43:31;14.38;;;3.63;;
70228;SDS011;57617;51.988;5.854;2022-12-07T09:45:58;13.00;;;3.60;;
70228;SDS011;57617;51.988;5.854;2022-12-07T09:48:30;16.37;;;3.67;;
70228;SDS011;57617;51.988;5.854;2022-12-07T09:50:58;13.97;;;3.20;;
70228;SDS011;57617;51.988;5.854;2022-12-07T09:53:26;11.93;;;2.93;;
70228;SDS011;57617;51.988;5.854;2022-12-07T09:55:55;11.75;;;2.78;;
70228;SDS011;57617;51.988;5.854;2022-12-07T09:58:24;13.82;;;4.32;;
70228;SDS011;57617;51.988;5.854;2022-12-07T10:01:05;14.82;;;5.43;;
70228;SDS011;57617;51.988;5.854;2022-12-07T10:03:39;10.63;;;4.15;;
70228;SDS011;57617;51.988;5.854;2022-12-07T10:06:07;11.97;;;3.63;;
70228;SDS011;57617;51.988;5.854;2022-12-07T10:08:32;11.27;;;3.10;;
70228;SDS011;57617;51.988;5.854;2022-12-07T10:10:59;7.88;;;2.20;;
70228;SDS011;57617;51.988;5.854;2022-12-07T10:16:04;13.23;;;2.80;;
70228;SDS011;57617;51.988;5.854;2022-12-07T10:18:41;7.90;;;2.28;;
70228;SDS011;57617;51.988;5.854;2022-12-07T10:23:59;8.43;;;2.40;;
70228;SDS011;57617;51.988;5.854;2022-12-07T10:26:40;11.13;;;2.35;;
70228;SDS011;57617;51.988;5.854;2022-12-07T10:29:22;9.15;;;2.70;;
70228;SDS011;57617;51.988;5.854;2022-12-07T10:31:56;9.85;;;2.53;;
70228;SDS011;57617;51.988;5.854;2022-12-07T10:34:28;9.57;;;2.30;;
70228;SDS011;57617;51.988;5.854;2022-12-07T10:39:40;9.57;;;2.60;;
70228;SDS011;57617;51.988;5.854;2022-12-07T10:42:22;7.35;;;2.53;;
70228;SDS011;57617;51.988;5.854;2022-12-07T10:53:08;9.73;;;1.87;;
70228;SDS011;57617;51.988;5.854;2022-12-07T11:04:39;8.32;;;2.20;;
70228;SDS011;57617;51.988;5.854;2022-12-07T11:07:39;7.78;;;2.00;;
70228;SDS011;57617;51.988;5.854;2022-12-07T11:10:26;7.40;;;1.88;;
70228;SDS011;57617;51.988;5.854;2022-12-07T11:13:23;8.07;;;1.83;;
70228;SDS011;57617;51.988;5.854;2022-12-07T11:21:41;5.70;;;2.17;;
70228;SDS011;57617;51.988;5.854;2022-12-07T11:24:16;12.82;;;2.40;;
70228;SDS011;57617;51.988;5.854;2022-12-07T11:29:30;10.23;;;1.98;;
70228;SDS011;57617;51.988;5.854;2022-12-07T11:35:08;7.30;;;2.63;;
70228;SDS011;57617;51.988;5.854;2022-12-07T11:37:42;11.50;;;1.83;;
70228;SDS011;57617;51.988;5.854;2022-12-07T11:40:14;10.68;;;2.08;;
70228;SDS011;57617;51.988;5.854;2022-12-07T11:42:44;5.10;;;1.73;;
70228;SDS011;57617;51.988;5.854;2022-12-07T11:45:15;9.65;;;1.88;;
70228;SDS011;57617;51.988;5.854;2022-12-07T11:47:53;7.88;;;1.85;;
70228;SDS011;57617;51.988;5.854;2022-12-07T11:53:04;8.43;;;1.70;;
70228;SDS011;57617;51.988;5.854;2022-12-07T12:03:40;8.13;;;1.67;;
70228;SDS011;57617;51.988;5.854;2022-12-07T12:06:15;6.53;;;1.90;;
70228;SDS011;57617;51.988;5.854;2022-12-07T12:11:32;8.40;;;2.25;;
70228;SDS011;57617;51.988;5.854;2022-12-07T12:15:03;8.93;;;2.20;;
70228;SDS011;57617;51.988;5.854;2022-12-07T12:17:20;11.00;;;1.83;;
70228;SDS011;57617;51.988;5.854;2022-12-07T12:22:50;8.03;;;2.60;;
70228;SDS011;57617;51.988;5.854;2022-12-07T12:25:21;7.53;;;2.17;;
70228;SDS011;57617;51.988;5.854;2022-12-07T12:27:50;5.70;;;1.75;;
70228;SDS011;57617;51.988;5.854;2022-12-07T12:30:37;9.32;;;2.40;;
70228;SDS011;57617;51.988;5.854;2022-12-07T12:33:50;8.45;;;2.20;;
70228;SDS011;57617;51.988;5.854;2022-12-07T12:39:14;6.97;;;1.90;;
70228;SDS011;57617;51.988;5.854;2022-12-07T12:47:01;6.28;;;1.67;;
70228;SDS011;57617;51.988;5.854;2022-12-07T12:57:36;13.32;;;4.05;;
70228;SDS011;57617;51.988;5.854;2022-12-07T13:00:18;12.77;;;5.05;;
70228;SDS011;57617;51.988;5.854;2022-12-07T13:02:48;7.03;;;2.47;;
70228;SDS011;57617;51.988;5.854;2022-12-07T13:20:58;4.50;;;1.70;;
70228;SDS011;57617;51.988;5.854;2022-12-07T13:34:05;6.68;;;1.92;;
70228;SDS011;57617;51.988;5.854;2022-12-07T13:36:50;6.10;;;1.88;;
70228;SDS011;57617;51.988;5.854;2022-12-07T13:39:17;8.10;;;1.60;;
70228;SDS011;57617;51.988;5.854;2022-12-07T13:41:46;10.88;;;1.80;;
70228;SDS011;57617;51.988;5.854;2022-12-07T13:44:19;7.65;;;1.45;;
70228;SDS011;57617;51.988;5.854;2022-12-07T13:49:50;8.75;;;1.70;;
70228;SDS011;57617;51.988;5.854;2022-12-07T13:57:21;7.70;;;1.25;;
70228;SDS011;57617;51.988;5.854;2022-12-07T13:59:49;9.68;;;1.63;;
70228;SDS011;57617;51.988;5.854;2022-12-07T14:05:25;7.40;;;1.25;;
70228;SDS011;57617;51.988;5.854;2022-12-07T14:10:26;6.28;;;1.50;;
70228;SDS011;57617;51.988;5.854;2022-12-07T14:12:53;6.95;;;1.50;;
70228;SDS011;57617;51.988;5.854;2022-12-07T14:15:23;3.88;;;0.93;;
70228;SDS011;57617;51.988;5.854;2022-12-07T14:17:54;4.50;;;1.42;;
70228;SDS011;57617;51.988;5.854;2022-12-07T14:22:55;6.63;;;1.45;;
70228;SDS011;57617;51.988;5.854;2022-12-07T14:25:21;5.82;;;1.08;;
70228;SDS011;57617;51.988;5.854;2022-12-07T14:27:58;6.72;;;1.13;;
70228;SDS011;57617;51.988;5.854;2022-12-07T14:30:29;5.80;;;1.27;;
70228;SDS011;57617;51.988;5.854;2022-12-07T14:32:58;6.90;;;1.33;;
70228;SDS011;57617;51.988;5.854;2022-12-07T14:35:25;6.88;;;1.33;;
70228;SDS011;57617;51.988;5.854;2022-12-07T14:37:50;6.50;;;1.27;;
70228;SDS011;57617;51.988;5.854;2022-12-07T14:40:20;4.03;;;1.05;;
70228;SDS011;57617;51.988;5.854;2022-12-07T14:42:47;7.07;;;1.33;;
70228;SDS011;57617;51.988;5.854;2022-12-07T14:45:17;6.30;;;1.20;;
70228;SDS011;57617;51.988;5.854;2022-12-07T14:47:44;6.88;;;1.38;;
70228;SDS011;57617;51.988;5.854;2022-12-07T14:50:14;5.75;;;1.50;;
70228;SDS011;57617;51.988;5.854;2022-12-07T14:52:56;6.60;;;2.10;;
70228;SDS011;57617;51.988;5.854;2022-12-07T14:55:29;7.88;;;2.22;;
70228;SDS011;57617;51.988;5.854;2022-12-07T14:57:56;8.82;;;2.72;;
70228;SDS011;57617;51.988;5.854;2022-12-07T15:00:23;8.13;;;3.03;;
70228;SDS011;57617;51.988;5.854;2022-12-07T15:02:50;7.38;;;2.45;;
70228;SDS011;57617;51.988;5.854;2022-12-07T15:05:16;5.95;;;2.13;;
70228;SDS011;57617;51.988;5.854;2022-12-07T15:07:42;5.53;;;2.00;;
70228;SDS011;57617;51.988;5.854;2022-12-07T15:10:18;6.75;;;2.33;;
70228;SDS011;57617;51.988;5.854;2022-12-07T15:12:46;8.77;;;3.33;;
70228;SDS011;57617;51.988;5.854;2022-12-07T15:15:12;12.50;;;3.53;;
70228;SDS011;57617;51.988;5.854;2022-12-07T15:17:38;7.57;;;3.10;;
70228;SDS011;57617;51.988;5.854;2022-12-07T15:20:04;10.50;;;2.65;;
70228;SDS011;57617;51.988;5.854;2022-12-07T15:22:30;7.33;;;2.40;;
70228;SDS011;57617;51.988;5.854;2022-12-07T15:24:56;10.10;;;2.67;;
70228;SDS011;57617;51.988;5.854;2022-12-07T15:27:22;8.48;;;2.45;;
70228;SDS011;57617;51.988;5.854;2022-12-07T15:29:47;11.60;;;3.50;;
70228;SDS011;57617;51.988;5.854;2022-12-07T15:32:12;11.18;;;3.17;;
70228;SDS011;57617;51.988;5.854;2022-12-07T15:34:37;12.05;;;4.53;;
70228;SDS011;57617;51.988;5.854;2022-12-07T15:37:03;9.25;;;2.60;;
70228;SDS011;57617;51.988;5.854;2022-12-07T15:39:28;9.43;;;2.45;;
70228;SDS011;57617;51.988;5.854;2022-12-07T15:41:53;7.68;;;2.85;;
70228;SDS011;57617;51.988;5.854;2022-12-07T15:44:18;8.75;;;3.60;;
70228;SDS011;57617;51.988;5.854;2022-12-07T15:47:03;11.63;;;3.85;;
70228;SDS011;57617;51.988;5.854;2022-12-07T15:49:29;14.70;;;4.72;;
70228;SDS011;57617;51.988;5.854;2022-12-07T15:51:54;14.88;;;4.63;;
70228;SDS011;57617;51.988;5.854;2022-12-07T15:54:23;12.85;;;4.53;;
70228;SDS011;57617;51.988;5.854;2022-12-07T15:56:51;16.52;;;6.88;;
70228;SDS011;57617;51.988;5.854;2022-12-07T15:59:16;12.30;;;5.32;;
70228;SDS011;57617;51.988;5.854;2022-12-07T16:01:42;15.00;;;5.80;;
70228;SDS011;57617;51.988;5.854;2022-12-07T16:04:08;27.30;;;8.43;;
70228;SDS011;57617;51.988;5.854;2022-12-07T16:06:33;24.88;;;9.30;;
70228;SDS011;57617;51.988;5.854;2022-12-07T16:08:59;18.92;;;6.43;;
70228;SDS011;57617;51.988;5.854;2022-12-07T16:11:24;14.65;;;5.78;;
70228;SDS011;57617;51.988;5.854;2022-12-07T16:13:49;14.82;;;5.05;;
70228;SDS011;57617;51.988;5.854;2022-12-07T16:16:15;10.68;;;3.97;;
70228;SDS011;57617;51.988;5.854;2022-12-07T16:18:43;11.23;;;4.30;;
70228;SDS011;57617;51.988;5.854;2022-12-07T16:21:08;12.75;;;3.22;;
70228;SDS011;57617;51.988;5.854;2022-12-07T16:23:34;10.20;;;3.92;;
70228;SDS011;57617;51.988;5.854;2022-12-07T16:26:03;12.63;;;4.07;;
70228;SDS011;57617;51.988;5.854;2022-12-07T16:28:30;10.32;;;3.80;;
70228;SDS011;57617;51.988;5.854;2022-12-07T16:31:02;11.27;;;3.88;;
70228;SDS011;57617;51.988;5.854;2022-12-07T16:33:32;6.90;;;3.15;;
70228;SDS011;57617;51.988;5.854;2022-12-07T16:35:59;11.82;;;3.90;;
70228;SDS011;57617;51.988;5.854;2022-12-07T16:38:25;9.63;;;3.00;;
70228;SDS011;57617;51.988;5.854;2022-12-07T16:40:50;4.93;;;2.40;;
70228;SDS011;57617;51.988;5.854;2022-12-07T16:43:16;11.00;;;2.78;;
70228;SDS011;57617;51.988;5.854;2022-12-07T16:45:41;13.57;;;3.28;;
70228;SDS011;57617;51.988;5.854;2022-12-07T16:48:06;10.45;;;3.60;;
70228;SDS011;57617;51.988;5.854;2022-12-07T16:50:32;8.38;;;3.38;;
70228;SDS011;57617;51.988;5.854;2022-12-07T16:52:57;13.88;;;3.90;;
70228;SDS011;57617;51.988;5.854;2022-12-07T16:55:22;11.40;;;4.15;;
70228;SDS011;57617;51.988;5.854;2022-12-07T16:57:47;14.40;;;3.90;;
70228;SDS011;57617;51.988;5.854;2022-12-07T17:00:13;11.60;;;4.90;;
70228;SDS011;57617;51.988;5.854;2022-12-07T17:02:38;12.82;;;5.55;;
70228;SDS011;57617;51.988;5.854;2022-12-07T17:05:03;15.15;;;7.40;;
70228;SDS011;57617;51.988;5.854;2022-12-07T17:07:29;27.60;;;13.55;;
70228;SDS011;57617;51.988;5.854;2022-12-07T17:09:54;16.58;;;10.07;;